Archival Weather

Republic

Farmingdale, New York (KFRG)

Report from: Sunday, February 18, 2024 3:53 PM EST
Current time: Friday, June 14, 2024 9:05 AM EDT

Current weather – Weather history – Daily summaries
Weather forecast

Temperature4.4°C (39.9°F)
Wind chill-1.0°C (30.2°F)
Dew point-9.4°C (15.1°F)
Winds 18 kts (9.3 m/s, 20.7 mph) West (260°)
Wind gusts 26 kts (13.4 m/s, 29.9 mph)
Peak wind 31 kts (15.9 m/s, 35.7 mph) West-Southwest (240°) at 20:21
Visibility10 mi. (16.1 km)
Clouds Sky clear
Altimeter29.78 in.Hg (1008 mB)
Relative humidity36 %
Density altitude-1,065 ft. (-325 m)
Sea-level pressure100.8 kPa (1008 mB, 29.78 in.Hg)
Remarks Automated weather observing station without precipitation discriminator
Pressure falling, then rising
Flight conditions Visual Meteorological Conditions
Raw dataKFRG 182053Z 26018G26KT 10SM CLR 04/M09 A2978 RMK AO1 PK WND 24031/2021 SLP084 T00441094 55013
An error has occurred. This application may no longer respond until reloaded. Reload 🗙